sensor_id;sensor_type;location;lat;lon;timestamp;temperature;humidity
1996;DHT22;38556;47.068;15.408;2022-09-16T00:02:10;19.40;99.90
1996;DHT22;38556;47.068;15.408;2022-09-16T00:04:37;19.30;99.90
1996;DHT22;38556;47.068;15.408;2022-09-16T00:07:06;19.20;99.90
1996;DHT22;38556;47.068;15.408;2022-09-16T00:09:33;19.10;99.90
1996;DHT22;38556;47.068;15.408;2022-09-16T00:12:00;19.20;99.90
1996;DHT22;38556;47.068;15.408;2022-09-16T00:14:29;19.20;99.90
1996;DHT22;38556;47.068;15.408;2022-09-16T00:16:56;19.10;99.90
1996;DHT22;38556;47.068;15.408;2022-09-16T00:19:24;19.20;99.90
1996;DHT22;38556;47.068;15.408;2022-09-16T00:21:51;19.30;99.90
1996;DHT22;38556;47.068;15.408;2022-09-16T00:24:19;19.30;99.90
1996;DHT22;38556;47.068;15.408;2022-09-16T00:26:46;19.30;99.90
1996;DHT22;38556;47.068;15.408;2022-09-16T00:29:14;19.30;99.90
1996;DHT22;38556;47.068;15.408;2022-09-16T00:31:42;19.30;99.90
1996;DHT22;38556;47.068;15.408;2022-09-16T00:36:37;19.30;99.90
1996;DHT22;38556;47.068;15.408;2022-09-16T00:39:04;19.30;99.90
1996;DHT22;38556;47.068;15.408;2022-09-16T00:41:32;19.30;99.90
1996;DHT22;38556;47.068;15.408;2022-09-16T00:44:02;19.30;99.90
1996;DHT22;38556;47.068;15.408;2022-09-16T00:46:34;19.30;99.90
1996;DHT22;38556;47.068;15.408;2022-09-16T00:49:05;19.30;99.90
1996;DHT22;38556;47.068;15.408;2022-09-16T00:51:36;19.30;99.90
1996;DHT22;38556;47.068;15.408;2022-09-16T00:54:05;19.30;99.90
1996;DHT22;38556;47.068;15.408;2022-09-16T00:56:37;19.40;99.90
1996;DHT22;38556;47.068;15.408;2022-09-16T00:59:07;19.40;99.90
1996;DHT22;38556;47.068;15.408;2022-09-16T01:01:36;19.30;99.90
1996;DHT22;38556;47.068;15.408;2022-09-16T01:04:09;19.30;99.90
1996;DHT22;38556;47.068;15.408;2022-09-16T01:06:40;19.20;99.90
1996;DHT22;38556;47.068;15.408;2022-09-16T01:09:07;19.10;99.90
1996;DHT22;38556;47.068;15.408;2022-09-16T01:11:34;18.90;99.90
1996;DHT22;38556;47.068;15.408;2022-09-16T01:14:03;18.90;99.90
1996;DHT22;38556;47.068;15.408;2022-09-16T01:16:53;18.00;99.90
1996;DHT22;38556;47.068;15.408;2022-09-16T01:19:36;18.10;99.90
1996;DHT22;38556;47.068;15.408;2022-09-16T01:22:20;18.10;99.90
1996;DHT22;38556;47.068;15.408;2022-09-16T01:24:59;18.30;99.90
1996;DHT22;38556;47.068;15.408;2022-09-16T01:27:57;18.50;99.90
1996;DHT22;38556;47.068;15.408;2022-09-16T01:30:42;18.80;99.90
1996;DHT22;38556;47.068;15.408;2022-09-16T01:33:16;18.90;99.90
1996;DHT22;38556;47.068;15.408;2022-09-16T01:36:02;19.00;99.90
1996;DHT22;38556;47.068;15.408;2022-09-16T01:38:54;19.00;99.90
1996;DHT22;38556;47.068;15.408;2022-09-16T01:41:27;19.10;99.90
1996;DHT22;38556;47.068;15.408;2022-09-16T01:44:01;19.10;99.90
1996;DHT22;38556;47.068;15.408;2022-09-16T01:46:37;19.20;99.90
1996;DHT22;38556;47.068;15.408;2022-09-16T01:49:16;19.20;99.90
1996;DHT22;38556;47.068;15.408;2022-09-16T01:51:49;19.10;99.90
1996;DHT22;38556;47.068;15.408;2022-09-16T01:54:22;18.70;99.90
1996;DHT22;38556;47.068;15.408;2022-09-16T01:56:59;18.70;99.90
1996;DHT22;38556;47.068;15.408;2022-09-16T01:59:31;18.80;99.90
1996;DHT22;38556;47.068;15.408;2022-09-16T02:02:04;18.90;99.90
1996;DHT22;38556;47.068;15.408;2022-09-16T02:04:37;18.90;99.90
1996;DHT22;38556;47.068;15.408;2022-09-16T02:07:08;18.90;99.90
1996;DHT22;38556;47.068;15.408;2022-09-16T02:09:38;19.00;99.90
1996;DHT22;38556;47.068;15.408;2022-09-16T02:12:11;19.00;99.90
1996;DHT22;38556;47.068;15.408;2022-09-16T02:14:41;19.00;99.90
1996;DHT22;38556;47.068;15.408;2022-09-16T02:17:13;19.00;99.90
1996;DHT22;38556;47.068;15.408;2022-09-16T02:19:42;19.00;99.90
1996;DHT22;38556;47.068;15.408;2022-09-16T02:22:14;18.90;99.90
1996;DHT22;38556;47.068;15.408;2022-09-16T02:24:43;18.90;99.90
1996;DHT22;38556;47.068;15.408;2022-09-16T02:27:14;18.90;99.90
1996;DHT22;38556;47.068;15.408;2022-09-16T02:29:45;18.70;99.90
1996;DHT22;38556;47.068;15.408;2022-09-16T02:32:17;18.70;99.90
1996;DHT22;38556;47.068;15.408;2022-09-16T02:34:47;18.80;99.90
1996;DHT22;38556;47.068;15.408;2022-09-16T02:37:19;18.40;99.90
1996;DHT22;38556;47.068;15.408;2022-09-16T02:39:52;18.20;99.90
1996;DHT22;38556;47.068;15.408;2022-09-16T02:42:21;18.20;99.90
1996;DHT22;38556;47.068;15.408;2022-09-16T02:44:49;18.30;99.90
1996;DHT22;38556;47.068;15.408;2022-09-16T02:47:25;18.40;99.90
1996;DHT22;38556;47.068;15.408;2022-09-16T02:49:56;18.60;99.90
1996;DHT22;38556;47.068;15.408;2022-09-16T02:52:32;18.60;99.90
1996;DHT22;38556;47.068;15.408;2022-09-16T02:55:09;18.70;99.90
1996;DHT22;38556;47.068;15.408;2022-09-16T02:57:38;18.80;99.90
1996;DHT22;38556;47.068;15.408;2022-09-16T03:00:07;17.90;99.90
1996;DHT22;38556;47.068;15.408;2022-09-16T03:02:36;17.80;99.90
1996;DHT22;38556;47.068;15.408;2022-09-16T03:05:05;17.80;99.90
1996;DHT22;38556;47.068;15.408;2022-09-16T03:07:32;17.80;99.90
1996;DHT22;38556;47.068;15.408;2022-09-16T03:10:00;17.60;99.90
1996;DHT22;38556;47.068;15.408;2022-09-16T03:12:41;17.70;99.90
1996;DHT22;38556;47.068;15.408;2022-09-16T03:15:24;17.70;99.90
1996;DHT22;38556;47.068;15.408;2022-09-16T03:21:01;17.70;99.90
1996;DHT22;38556;47.068;15.408;2022-09-16T03:23:39;17.80;99.90
1996;DHT22;38556;47.068;15.408;2022-09-16T03:26:16;18.00;99.90
1996;DHT22;38556;47.068;15.408;2022-09-16T03:28:53;18.30;99.90
1996;DHT22;38556;47.068;15.408;2022-09-16T03:31:27;18.40;99.90
1996;DHT22;38556;47.068;15.408;2022-09-16T03:34:01;18.50;99.90
1996;DHT22;38556;47.068;15.408;2022-09-16T03:36:34;18.60;99.90
1996;DHT22;38556;47.068;15.408;2022-09-16T03:39:03;18.40;99.90
1996;DHT22;38556;47.068;15.408;2022-09-16T03:41:31;18.40;99.90
1996;DHT22;38556;47.068;15.408;2022-09-16T03:44:00;18.40;99.90
1996;DHT22;38556;47.068;15.408;2022-09-16T03:46:28;18.20;99.90
1996;DHT22;38556;47.068;15.408;2022-09-16T03:48:55;18.30;99.90
1996;DHT22;38556;47.068;15.408;2022-09-16T03:51:23;18.30;99.90
1996;DHT22;38556;47.068;15.408;2022-09-16T03:53:51;18.30;99.90
1996;DHT22;38556;47.068;15.408;2022-09-16T03:56:21;18.30;99.90
1996;DHT22;38556;47.068;15.408;2022-09-16T03:58:49;18.30;99.90
1996;DHT22;38556;47.068;15.408;2022-09-16T04:01:16;18.40;99.90
1996;DHT22;38556;47.068;15.408;2022-09-16T04:03:43;18.40;99.90
1996;DHT22;38556;47.068;15.408;2022-09-16T04:06:11;18.30;99.90
1996;DHT22;38556;47.068;15.408;2022-09-16T04:08:38;18.20;99.90
1996;DHT22;38556;47.068;15.408;2022-09-16T04:11:07;17.80;99.90
1996;DHT22;38556;47.068;15.408;2022-09-16T04:13:35;17.80;99.90
1996;DHT22;38556;47.068;15.408;2022-09-16T04:16:03;17.80;99.90
1996;DHT22;38556;47.068;15.408;2022-09-16T04:18:31;17.90;99.90
1996;DHT22;38556;47.068;15.408;2022-09-16T04:21:00;18.00;99.90
1996;DHT22;38556;47.068;15.408;2022-09-16T04:23:28;17.90;99.90
1996;DHT22;38556;47.068;15.408;2022-09-16T04:25:57;17.90;99.90
1996;DHT22;38556;47.068;15.408;2022-09-16T04:28:29;17.90;99.90
1996;DHT22;38556;47.068;15.408;2022-09-16T04:30:59;17.90;99.90
1996;DHT22;38556;47.068;15.408;2022-09-16T04:33:28;18.00;99.90
1996;DHT22;38556;47.068;15.408;2022-09-16T04:36:01;18.00;99.90
1996;DHT22;38556;47.068;15.408;2022-09-16T04:38:29;18.00;99.90
1996;DHT22;38556;47.068;15.408;2022-09-16T04:41:00;18.20;99.90
1996;DHT22;38556;47.068;15.408;2022-09-16T04:43:29;18.10;99.90
1996;DHT22;38556;47.068;15.408;2022-09-16T04:45:56;17.90;99.90
1996;DHT22;38556;47.068;15.408;2022-09-16T04:48:24;17.90;99.90
1996;DHT22;38556;47.068;15.408;2022-09-16T04:50:51;17.90;99.90
1996;DHT22;38556;47.068;15.408;2022-09-16T04:53:20;18.10;99.90
1996;DHT22;38556;47.068;15.408;2022-09-16T04:55:47;18.20;99.90
1996;DHT22;38556;47.068;15.408;2022-09-16T04:58:14;18.20;99.90
1996;DHT22;38556;47.068;15.408;2022-09-16T05:00:43;17.80;99.90
1996;DHT22;38556;47.068;15.408;2022-09-16T05:03:10;17.70;99.90
1996;DHT22;38556;47.068;15.408;2022-09-16T05:05:38;17.60;99.90
1996;DHT22;38556;47.068;15.408;2022-09-16T05:08:05;17.50;99.90
1996;DHT22;38556;47.068;15.408;2022-09-16T05:10:33;17.20;99.90
1996;DHT22;38556;47.068;15.408;2022-09-16T05:13:00;17.30;99.90
1996;DHT22;38556;47.068;15.408;2022-09-16T05:15:27;17.50;99.90
1996;DHT22;38556;47.068;15.408;2022-09-16T05:17:56;17.50;99.90
1996;DHT22;38556;47.068;15.408;2022-09-16T05:20:24;17.70;99.90
1996;DHT22;38556;47.068;15.408;2022-09-16T05:22:51;17.80;99.90
1996;DHT22;38556;47.068;15.408;2022-09-16T05:25:19;17.70;99.90
1996;DHT22;38556;47.068;15.408;2022-09-16T05:27:46;17.70;99.90
1996;DHT22;38556;47.068;15.408;2022-09-16T05:30:13;17.70;99.90
1996;DHT22;38556;47.068;15.408;2022-09-16T05:32:42;17.50;99.90
1996;DHT22;38556;47.068;15.408;2022-09-16T05:35:11;17.40;99.90
1996;DHT22;38556;47.068;15.408;2022-09-16T05:37:38;16.90;99.90
1996;DHT22;38556;47.068;15.408;2022-09-16T05:40:07;16.80;99.90
1996;DHT22;38556;47.068;15.408;2022-09-16T05:42:34;16.70;99.90
1996;DHT22;38556;47.068;15.408;2022-09-16T05:45:02;16.70;99.90
1996;DHT22;38556;47.068;15.408;2022-09-16T05:47:29;16.80;99.90
1996;DHT22;38556;47.068;15.408;2022-09-16T05:49:56;16.90;99.90
1996;DHT22;38556;47.068;15.408;2022-09-16T05:52:25;17.00;99.90
1996;DHT22;38556;47.068;15.408;2022-09-16T05:54:53;17.20;99.90
1996;DHT22;38556;47.068;15.408;2022-09-16T05:57:20;17.40;99.90
1996;DHT22;38556;47.068;15.408;2022-09-16T05:59:49;17.50;99.90
1996;DHT22;38556;47.068;15.408;2022-09-16T06:02:16;17.50;99.90
1996;DHT22;38556;47.068;15.408;2022-09-16T06:04:43;17.80;99.90
1996;DHT22;38556;47.068;15.408;2022-09-16T06:07:10;17.80;99.90
1996;DHT22;38556;47.068;15.408;2022-09-16T06:09:39;17.90;99.90
1996;DHT22;38556;47.068;15.408;2022-09-16T06:12:09;17.90;99.90
1996;DHT22;38556;47.068;15.408;2022-09-16T06:14:36;17.60;99.90
1996;DHT22;38556;47.068;15.408;2022-09-16T06:17:03;17.10;99.90
1996;DHT22;38556;47.068;15.408;2022-09-16T06:19:30;16.80;99.90
1996;DHT22;38556;47.068;15.408;2022-09-16T06:21:58;16.90;99.90
1996;DHT22;38556;47.068;15.408;2022-09-16T06:26:54;16.60;99.90
1996;DHT22;38556;47.068;15.408;2022-09-16T06:29:21;16.90;99.90
1996;DHT22;38556;47.068;15.408;2022-09-16T06:31:49;16.90;99.90
1996;DHT22;38556;47.068;15.408;2022-09-16T06:34:17;17.40;99.90
1996;DHT22;38556;47.068;15.408;2022-09-16T06:36:45;17.40;99.90
1996;DHT22;38556;47.068;15.408;2022-09-16T06:39:13;17.60;99.90
1996;DHT22;38556;47.068;15.408;2022-09-16T06:41:40;17.50;99.90
1996;DHT22;38556;47.068;15.408;2022-09-16T06:44:09;17.40;99.90
1996;DHT22;38556;47.068;15.408;2022-09-16T06:46:36;17.30;99.90
1996;DHT22;38556;47.068;15.408;2022-09-16T06:49:04;17.20;99.90
1996;DHT22;38556;47.068;15.408;2022-09-16T06:51:32;17.00;99.90
1996;DHT22;38556;47.068;15.408;2022-09-16T06:54:01;16.90;99.90
1996;DHT22;38556;47.068;15.408;2022-09-16T06:56:28;16.90;99.90
1996;DHT22;38556;47.068;15.408;2022-09-16T06:58:56;16.90;99.90
1996;DHT22;38556;47.068;15.408;2022-09-16T07:01:27;17.00;99.90
1996;DHT22;38556;47.068;15.408;2022-09-16T07:03:55;17.00;99.90
1996;DHT22;38556;47.068;15.408;2022-09-16T07:06:24;17.10;99.90
1996;DHT22;38556;47.068;15.408;2022-09-16T07:08:53;17.10;99.90
1996;DHT22;38556;47.068;15.408;2022-09-16T07:11:22;17.10;99.90
1996;DHT22;38556;47.068;15.408;2022-09-16T07:13:50;17.30;99.90
1996;DHT22;38556;47.068;15.408;2022-09-16T07:16:20;17.20;99.90
1996;DHT22;38556;47.068;15.408;2022-09-16T07:18:51;17.00;99.90
1996;DHT22;38556;47.068;15.408;2022-09-16T07:21:21;17.00;99.90
1996;DHT22;38556;47.068;15.408;2022-09-16T07:23:53;14.20;99.90
1996;DHT22;38556;47.068;15.408;2022-09-16T07:26:22;16.80;99.90
1996;DHT22;38556;47.068;15.408;2022-09-16T07:28:51;16.80;99.90
1996;DHT22;38556;47.068;15.408;2022-09-16T07:31:21;16.80;99.90
1996;DHT22;38556;47.068;15.408;2022-09-16T07:33:52;16.80;99.90
1996;DHT22;38556;47.068;15.408;2022-09-16T07:36:22;16.70;99.90
1996;DHT22;38556;47.068;15.408;2022-09-16T07:38:49;16.80;99.90
1996;DHT22;38556;47.068;15.408;2022-09-16T07:41:18;16.80;99.90
1996;DHT22;38556;47.068;15.408;2022-09-16T07:43:46;16.70;99.90
1996;DHT22;38556;47.068;15.408;2022-09-16T07:46:15;16.50;99.90
1996;DHT22;38556;47.068;15.408;2022-09-16T07:48:43;16.50;99.90
1996;DHT22;38556;47.068;15.408;2022-09-16T07:51:14;16.40;99.90
1996;DHT22;38556;47.068;15.408;2022-09-16T07:53:42;16.40;99.90
1996;DHT22;38556;47.068;15.408;2022-09-16T07:56:12;16.40;99.90
1996;DHT22;38556;47.068;15.408;2022-09-16T07:58:40;16.60;99.90
1996;DHT22;38556;47.068;15.408;2022-09-16T08:01:08;16.70;99.90
1996;DHT22;38556;47.068;15.408;2022-09-16T08:03:38;16.50;99.90
1996;DHT22;38556;47.068;15.408;2022-09-16T08:06:08;16.40;99.90
1996;DHT22;38556;47.068;15.408;2022-09-16T08:08:37;16.50;99.90
1996;DHT22;38556;47.068;15.408;2022-09-16T08:11:05;16.50;99.90
1996;DHT22;38556;47.068;15.408;2022-09-16T08:13:33;16.40;99.90
1996;DHT22;38556;47.068;15.408;2022-09-16T08:16:04;16.20;99.90
1996;DHT22;38556;47.068;15.408;2022-09-16T08:18:32;16.30;99.90
1996;DHT22;38556;47.068;15.408;2022-09-16T08:21:04;16.30;99.90
1996;DHT22;38556;47.068;15.408;2022-09-16T08:23:32;16.30;99.90
1996;DHT22;38556;47.068;15.408;2022-09-16T08:26:01;16.40;99.90
1996;DHT22;38556;47.068;15.408;2022-09-16T08:28:29;16.20;99.90
1996;DHT22;38556;47.068;15.408;2022-09-16T08:33:25;16.10;99.90
1996;DHT22;38556;47.068;15.408;2022-09-16T08:35:59;16.10;99.90
1996;DHT22;38556;47.068;15.408;2022-09-16T08:38:27;16.00;99.90
1996;DHT22;38556;47.068;15.408;2022-09-16T08:40:59;16.00;99.90
1996;DHT22;38556;47.068;15.408;2022-09-16T08:43:36;15.90;99.90
1996;DHT22;38556;47.068;15.408;2022-09-16T08:46:11;16.00;99.90
1996;DHT22;38556;47.068;15.408;2022-09-16T08:48:45;16.00;99.90
1996;DHT22;38556;47.068;15.408;2022-09-16T08:51:19;16.00;99.90
1996;DHT22;38556;47.068;15.408;2022-09-16T08:53:51;16.00;99.90
1996;DHT22;38556;47.068;15.408;2022-09-16T08:56:21;15.90;99.90
1996;DHT22;38556;47.068;15.408;2022-09-16T08:58:54;15.90;99.90
1996;DHT22;38556;47.068;15.408;2022-09-16T09:01:28;15.90;99.90
1996;DHT22;38556;47.068;15.408;2022-09-16T09:03:57;16.00;99.90
1996;DHT22;38556;47.068;15.408;2022-09-16T09:06:52;16.00;99.90
1996;DHT22;38556;47.068;15.408;2022-09-16T09:09:34;15.80;99.90
1996;DHT22;38556;47.068;15.408;2022-09-16T09:12:08;15.80;99.90
1996;DHT22;38556;47.068;15.408;2022-09-16T09:14:46;15.80;99.90
1996;DHT22;38556;47.068;15.408;2022-09-16T09:17:24;15.80;99.90
1996;DHT22;38556;47.068;15.408;2022-09-16T09:20:05;15.80;99.90
1996;DHT22;38556;47.068;15.408;2022-09-16T09:22:49;16.00;99.90
1996;DHT22;38556;47.068;15.408;2022-09-16T09:25:24;16.00;99.90
1996;DHT22;38556;47.068;15.408;2022-09-16T09:28:05;15.90;99.90
1996;DHT22;38556;47.068;15.408;2022-09-16T09:30:40;15.90;99.90
1996;DHT22;38556;47.068;15.408;2022-09-16T09:33:17;15.80;99.90
1996;DHT22;38556;47.068;15.408;2022-09-16T09:36:06;16.00;99.90
1996;DHT22;38556;47.068;15.408;2022-09-16T09:38:49;16.10;99.90
1996;DHT22;38556;47.068;15.408;2022-09-16T09:41:23;16.10;99.90
1996;DHT22;38556;47.068;15.408;2022-09-16T09:43:56;16.20;99.90
1996;DHT22;38556;47.068;15.408;2022-09-16T09:46:31;16.40;99.90
1996;DHT22;38556;47.068;15.408;2022-09-16T09:49:06;16.50;99.90
1996;DHT22;38556;47.068;15.408;2022-09-16T09:51:39;16.50;99.90
1996;DHT22;38556;47.068;15.408;2022-09-16T09:54:19;16.60;99.90
1996;DHT22;38556;47.068;15.408;2022-09-16T09:56:52;16.60;99.90
1996;DHT22;38556;47.068;15.408;2022-09-16T09:59:26;16.30;99.90
1996;DHT22;38556;47.068;15.408;2022-09-16T10:01:57;16.00;99.90
1996;DHT22;38556;47.068;15.408;2022-09-16T10:06:54;15.60;99.90
1996;DHT22;38556;47.068;15.408;2022-09-16T10:09:22;15.50;99.90
1996;DHT22;38556;47.068;15.408;2022-09-16T10:11:52;15.60;99.90
1996;DHT22;38556;47.068;15.408;2022-09-16T10:14:24;15.70;99.90
1996;DHT22;38556;47.068;15.408;2022-09-16T10:16:53;15.70;99.90
1996;DHT22;38556;47.068;15.408;2022-09-16T10:19:24;15.80;99.90
1996;DHT22;38556;47.068;15.408;2022-09-16T10:21:53;15.80;99.90
1996;DHT22;38556;47.068;15.408;2022-09-16T10:24:32;15.90;99.90
1996;DHT22;38556;47.068;15.408;2022-09-16T10:27:01;15.90;99.90
1996;DHT22;38556;47.068;15.408;2022-09-16T10:29:43;15.90;99.90
1996;DHT22;38556;47.068;15.408;2022-09-16T10:32:13;15.90;99.90
1996;DHT22;38556;47.068;15.408;2022-09-16T10:34:44;16.00;99.90
1996;DHT22;38556;47.068;15.408;2022-09-16T10:37:16;15.80;99.90
1996;DHT22;38556;47.068;15.408;2022-09-16T10:39:50;15.90;99.90
1996;DHT22;38556;47.068;15.408;2022-09-16T10:42:20;15.80;99.90
1996;DHT22;38556;47.068;15.408;2022-09-16T10:44:48;15.80;99.90
1996;DHT22;38556;47.068;15.408;2022-09-16T10:47:19;16.10;99.90
1996;DHT22;38556;47.068;15.408;2022-09-16T10:49:51;15.60;99.90
1996;DHT22;38556;47.068;15.408;2022-09-16T10:52:21;15.90;99.90
1996;DHT22;38556;47.068;15.408;2022-09-16T10:54:49;15.90;99.90
1996;DHT22;38556;47.068;15.408;2022-09-16T10:57:25;16.20;99.90
1996;DHT22;38556;47.068;15.408;2022-09-16T10:59:59;16.20;99.90
1996;DHT22;38556;47.068;15.408;2022-09-16T11:02:43;16.30;99.90
1996;DHT22;38556;47.068;15.408;2022-09-16T11:05:17;16.30;99.90
1996;DHT22;38556;47.068;15.408;2022-09-16T11:07:56;16.30;99.90
1996;DHT22;38556;47.068;15.408;2022-09-16T11:10:31;16.60;99.90
1996;DHT22;38556;47.068;15.408;2022-09-16T11:13:32;16.50;99.90
1996;DHT22;38556;47.068;15.408;2022-09-16T11:16:17;16.40;99.90
1996;DHT22;38556;47.068;15.408;2022-09-16T11:18:54;16.50;99.90
1996;DHT22;38556;47.068;15.408;2022-09-16T11:21:39;16.10;99.90
1996;DHT22;38556;47.068;15.408;2022-09-16T11:27:16;15.80;99.90
1996;DHT22;38556;47.068;15.408;2022-09-16T11:30:07;15.50;99.90
1996;DHT22;38556;47.068;15.408;2022-09-16T11:32:50;15.70;99.90
1996;DHT22;38556;47.068;15.408;2022-09-16T11:35:46;15.70;99.90
1996;DHT22;38556;47.068;15.408;2022-09-16T11:38:28;16.00;99.90
1996;DHT22;38556;47.068;15.408;2022-09-16T11:41:09;16.10;99.90
1996;DHT22;38556;47.068;15.408;2022-09-16T11:43:58;16.30;99.90
1996;DHT22;38556;47.068;15.408;2022-09-16T11:46:32;16.30;99.90
1996;DHT22;38556;47.068;15.408;2022-09-16T11:49:15;16.30;99.90
1996;DHT22;38556;47.068;15.408;2022-09-16T11:51:57;16.30;99.90
1996;DHT22;38556;47.068;15.408;2022-09-16T11:54:43;16.30;99.90
1996;DHT22;38556;47.068;15.408;2022-09-16T11:57:17;16.40;99.90
1996;DHT22;38556;47.068;15.408;2022-09-16T11:59:50;16.50;99.90
1996;DHT22;38556;47.068;15.408;2022-09-16T12:02:22;16.40;99.90
1996;DHT22;38556;47.068;15.408;2022-09-16T12:04:55;16.40;99.90
1996;DHT22;38556;47.068;15.408;2022-09-16T12:07:28;16.50;99.90
1996;DHT22;38556;47.068;15.408;2022-09-16T12:10:03;16.60;99.90
1996;DHT22;38556;47.068;15.408;2022-09-16T12:12:34;16.40;99.90
1996;DHT22;38556;47.068;15.408;2022-09-16T12:15:12;16.40;99.90
1996;DHT22;38556;47.068;15.408;2022-09-16T12:17:45;16.50;99.90
1996;DHT22;38556;47.068;15.408;2022-09-16T12:20:19;16.50;99.90
1996;DHT22;38556;47.068;15.408;2022-09-16T12:22:49;16.50;99.90
1996;DHT22;38556;47.068;15.408;2022-09-16T12:25:24;16.60;99.90
1996;DHT22;38556;47.068;15.408;2022-09-16T12:27:56;16.60;99.90
1996;DHT22;38556;47.068;15.408;2022-09-16T12:30:29;16.70;99.90
1996;DHT22;38556;47.068;15.408;2022-09-16T12:33:01;16.70;99.90
1996;DHT22;38556;47.068;15.408;2022-09-16T12:35:33;16.70;99.90
1996;DHT22;38556;47.068;15.408;2022-09-16T12:38:01;16.70;99.90
1996;DHT22;38556;47.068;15.408;2022-09-16T12:40:37;16.70;99.90
1996;DHT22;38556;47.068;15.408;2022-09-16T12:43:30;16.70;99.90
1996;DHT22;38556;47.068;15.408;2022-09-16T12:49:38;16.60;99.90
1996;DHT22;38556;47.068;15.408;2022-09-16T12:52:25;16.60;99.90
1996;DHT22;38556;47.068;15.408;2022-09-16T13:01:15;15.90;99.90
1996;DHT22;38556;47.068;15.408;2022-09-16T13:03:47;15.90;99.90
1996;DHT22;38556;47.068;15.408;2022-09-16T13:06:21;15.60;99.90
1996;DHT22;38556;47.068;15.408;2022-09-16T13:08:50;15.40;99.90
1996;DHT22;38556;47.068;15.408;2022-09-16T13:11:20;15.50;99.90
1996;DHT22;38556;47.068;15.408;2022-09-16T13:13:52;15.40;99.90
1996;DHT22;38556;47.068;15.408;2022-09-16T13:16:30;15.40;99.90
1996;DHT22;38556;47.068;15.408;2022-09-16T13:19:26;15.30;99.90
1996;DHT22;38556;47.068;15.408;2022-09-16T13:21:56;15.50;99.90
1996;DHT22;38556;47.068;15.408;2022-09-16T13:24:29;15.70;99.90
1996;DHT22;38556;47.068;15.408;2022-09-16T13:26:57;15.50;99.90
1996;DHT22;38556;47.068;15.408;2022-09-16T13:29:40;15.50;99.90
1996;DHT22;38556;47.068;15.408;2022-09-16T13:32:26;15.50;99.90
1996;DHT22;38556;47.068;15.408;2022-09-16T13:35:01;15.60;99.90
1996;DHT22;38556;47.068;15.408;2022-09-16T13:37:29;15.70;99.90
1996;DHT22;38556;47.068;15.408;2022-09-16T13:42:24;15.60;99.90
1996;DHT22;38556;47.068;15.408;2022-09-16T13:44:53;15.70;99.90
1996;DHT22;38556;47.068;15.408;2022-09-16T13:47:29;15.70;99.90
1996;DHT22;38556;47.068;15.408;2022-09-16T13:50:04;15.60;99.90
1996;DHT22;38556;47.068;15.408;2022-09-16T13:52:34;15.40;99.90
1996;DHT22;38556;47.068;15.408;2022-09-16T13:55:03;15.50;99.90
1996;DHT22;38556;47.068;15.408;2022-09-16T13:57:45;15.60;99.90
1996;DHT22;38556;47.068;15.408;2022-09-16T14:00:20;15.70;99.90
1996;DHT22;38556;47.068;15.408;2022-09-16T14:03:08;15.80;99.90
1996;DHT22;38556;47.068;15.408;2022-09-16T14:06:04;15.90;99.90
1996;DHT22;38556;47.068;15.408;2022-09-16T14:08:41;15.70;99.90
1996;DHT22;38556;47.068;15.408;2022-09-16T14:11:16;15.60;99.90
1996;DHT22;38556;47.068;15.408;2022-09-16T14:13:47;15.60;99.90
1996;DHT22;38556;47.068;15.408;2022-09-16T14:16:19;15.60;99.90
1996;DHT22;38556;47.068;15.408;2022-09-16T14:18:54;15.40;99.90
1996;DHT22;38556;47.068;15.408;2022-09-16T14:21:23;15.50;99.90
1996;DHT22;38556;47.068;15.408;2022-09-16T14:23:50;15.40;99.90
1996;DHT22;38556;47.068;15.408;2022-09-16T14:26:19;15.30;99.90
1996;DHT22;38556;47.068;15.408;2022-09-16T14:28:47;15.00;99.90
1996;DHT22;38556;47.068;15.408;2022-09-16T14:31:18;15.10;99.90
1996;DHT22;38556;47.068;15.408;2022-09-16T14:33:49;15.20;99.90
1996;DHT22;38556;47.068;15.408;2022-09-16T14:36:19;15.20;99.90
1996;DHT22;38556;47.068;15.408;2022-09-16T14:38:53;13.70;99.90
1996;DHT22;38556;47.068;15.408;2022-09-16T14:41:24;15.30;99.90
1996;DHT22;38556;47.068;15.408;2022-09-16T14:43:54;15.60;99.90
1996;DHT22;38556;47.068;15.408;2022-09-16T14:46:26;15.80;99.90
1996;DHT22;38556;47.068;15.408;2022-09-16T14:48:53;15.90;99.90
1996;DHT22;38556;47.068;15.408;2022-09-16T14:51:23;15.90;99.90
1996;DHT22;38556;47.068;15.408;2022-09-16T14:53:54;15.50;99.90
1996;DHT22;38556;47.068;15.408;2022-09-16T14:56:22;15.50;99.90
1996;DHT22;38556;47.068;15.408;2022-09-16T14:58:51;15.40;99.90
1996;DHT22;38556;47.068;15.408;2022-09-16T15:01:22;15.30;99.90
1996;DHT22;38556;47.068;15.408;2022-09-16T15:03:56;15.30;99.90
1996;DHT22;38556;47.068;15.408;2022-09-16T15:06:28;15.00;99.90
1996;DHT22;38556;47.068;15.408;2022-09-16T15:08:59;14.90;99.90
1996;DHT22;38556;47.068;15.408;2022-09-16T15:11:31;14.90;99.90
1996;DHT22;38556;47.068;15.408;2022-09-16T15:14:00;14.90;99.90
1996;DHT22;38556;47.068;15.408;2022-09-16T15:16:28;14.90;99.90
1996;DHT22;38556;47.068;15.408;2022-09-16T15:18:59;15.10;99.90
1996;DHT22;38556;47.068;15.408;2022-09-16T15:21:28;15.20;99.90
1996;DHT22;38556;47.068;15.408;2022-09-16T15:23:57;15.10;99.90
1996;DHT22;38556;47.068;15.408;2022-09-16T15:26:29;15.30;99.90
1996;DHT22;38556;47.068;15.408;2022-09-16T15:28:59;15.30;99.90
1996;DHT22;38556;47.068;15.408;2022-09-16T15:31:32;15.30;99.90
1996;DHT22;38556;47.068;15.408;2022-09-16T15:34:03;15.30;99.90
1996;DHT22;38556;47.068;15.408;2022-09-16T15:36:37;15.40;99.90
1996;DHT22;38556;47.068;15.408;2022-09-16T15:39:19;15.30;99.90
1996;DHT22;38556;47.068;15.408;2022-09-16T15:41:47;15.40;99.90
1996;DHT22;38556;47.068;15.408;2022-09-16T15:44:18;15.40;99.90
1996;DHT22;38556;47.068;15.408;2022-09-16T15:46:49;15.50;99.90
1996;DHT22;38556;47.068;15.408;2022-09-16T15:49:18;15.40;99.90
1996;DHT22;38556;47.068;15.408;2022-09-16T15:51:48;15.40;99.90
1996;DHT22;38556;47.068;15.408;2022-09-16T15:54:20;15.40;99.90
1996;DHT22;38556;47.068;15.408;2022-09-16T15:56:53;15.50;99.90
1996;DHT22;38556;47.068;15.408;2022-09-16T15:59:28;15.40;99.90
1996;DHT22;38556;47.068;15.408;2022-09-16T16:01:59;15.20;99.90
1996;DHT22;38556;47.068;15.408;2022-09-16T16:04:30;15.00;99.90
1996;DHT22;38556;47.068;15.408;2022-09-16T16:06:59;15.10;99.90
1996;DHT22;38556;47.068;15.408;2022-09-16T16:09:32;15.10;99.90
1996;DHT22;38556;47.068;15.408;2022-09-16T16:12:02;14.90;99.90
1996;DHT22;38556;47.068;15.408;2022-09-16T16:14:31;15.00;99.90
1996;DHT22;38556;47.068;15.408;2022-09-16T16:17:00;15.00;99.90
1996;DHT22;38556;47.068;15.408;2022-09-16T16:19:29;15.40;99.90
1996;DHT22;38556;47.068;15.408;2022-09-16T16:21:57;15.40;99.90
1996;DHT22;38556;47.068;15.408;2022-09-16T16:24:25;15.50;99.90
1996;DHT22;38556;47.068;15.408;2022-09-16T16:26:53;15.50;99.90
1996;DHT22;38556;47.068;15.408;2022-09-16T16:29:20;15.60;99.90